Ithaca, New York
Current Conditions -  °F | °C
As of 7:56 PM on Tuesday 25 Nov 2014 (Local Time) from KITH Reporting Station
Broken Clouds Broken Clouds  
Wind Chill:   Ceiling: 5500
Heat Index:   Visibility: 10mi
Dew Point: -2°   Wind: 5mph
Humidity: 65%   Direction: 350°N
Pressure: 30.09"   Gusts: NA
Location:  42.44°N, 76.49°W
Report Text: KITH 260056Z 35004KT 10SM BKN055 04/M02 A3009 RMK AO2 T00381022 SLP199
Loading
Personal Weather Stations






























Interactive Weather Map New forecast layout! Learn more

10-Day Weather Forecast

Advertisements
Track Severe Weather on mobile